Time;durP1;ratioP1;P1;durP2;ratioP2;P2;SDS_P1;SDS_P2;PMS_P1;PMS_P2;Temp;Humidity;BMP_temperature;BMP_pressure;BME280_temperature;BME280_humidity;BME280_pressure;Samples;Min_cycle;Max_cycle;Signal;HPM_P1;HPM_P2
2022/07/02 00:01:23;;;;;;;6.30;5.50;;;13.60;99.90;;;;;;5070817;28;20554;-66
2022/07/02 00:03:53;;;;;;;7.30;5.33;;;13.60;99.90;;;;;;5071072;28;20479;-66
2022/07/02 00:06:21;;;;;;;7.77;5.80;;;13.60;99.90;;;;;;5071130;28;20535;-66
2022/07/02 00:08:48;;;;;;;7.83;5.67;;;13.50;99.90;;;;;;5071079;28;20506;-66
2022/07/02 00:11:15;;;;;;;6.13;4.60;;;13.50;99.90;;;;;;5070866;28;20471;-66
2022/07/02 00:13:43;;;;;;;10.13;4.97;;;13.40;99.90;;;;;;5071053;28;20475;-66
2022/07/02 00:16:10;;;;;;;8.13;5.73;;;13.30;99.90;;;;;;5070938;28;20544;-66
2022/07/02 00:18:38;;;;;;;5.93;5.10;;;13.20;99.90;;;;;;5071009;28;20483;-66
2022/07/02 00:21:06;;;;;;;8.90;5.40;;;13.20;99.90;;;;;;5070883;28;20457;-66
2022/07/02 00:23:33;;;;;;;6.53;5.77;;;13.10;99.90;;;;;;5070998;28;20878;-66
2022/07/02 00:26:04;;;;;;;5.60;5.10;;;13.20;99.90;;;;;;5070717;28;20461;-66
2022/07/02 00:28:34;;;;;;;10.77;6.33;;;13.20;99.90;;;;;;5070888;28;20439;-66
2022/07/02 00:31:01;;;;;;;7.77;6.40;;;13.20;99.90;;;;;;5070327;28;21111;-66
2022/07/02 00:33:30;;;;;;;8.70;7.30;;;13.10;99.90;;;;;;5070363;28;20995;-66
2022/07/02 00:35:59;;;;;;;5.97;5.33;;;13.00;99.90;;;;;;5070636;28;20451;-66
2022/07/02 00:38:27;;;;;;;7.40;6.47;;;13.00;99.90;;;;;;5070401;28;20481;-66
2022/07/02 00:40:54;;;;;;;6.90;6.20;;;13.10;99.90;;;;;;5070111;28;20469;-66
2022/07/02 00:43:23;;;;;;;8.63;6.40;;;13.10;99.90;;;;;;5070299;28;20834;-66
2022/07/02 00:45:51;;;;;;;7.50;6.47;;;13.00;99.90;;;;;;5070091;28;20884;-66
2022/07/02 00:48:18;;;;;;;8.30;6.47;;;13.00;99.90;;;;;;5070378;28;20530;-66
2022/07/02 00:50:44;;;;;;;7.10;6.40;;;13.00;99.90;;;;;;5069805;28;20447;-66
2022/07/02 00:53:11;;;;;;;7.90;6.50;;;13.00;99.90;;;;;;5069859;28;20467;-66
2022/07/02 00:55:39;;;;;;;7.30;6.00;;;13.00;99.90;;;;;;5070174;28;20447;-66
2022/07/02 00:58:06;;;;;;;5.40;4.80;;;13.00;99.90;;;;;;5070229;28;20495;-66
2022/07/02 01:00:33;;;;;;;6.23;5.57;;;13.00;99.90;;;;;;5069709;28;20466;-66
2022/07/02 01:03:00;;;;;;;6.40;5.77;;;13.00;99.90;;;;;;5064895;28;20468;-66
2022/07/02 01:05:27;;;;;;;6.30;5.50;;;13.00;99.90;;;;;;5079712;28;20447;-66
2022/07/02 01:10:41;;;;;;;6.20;5.60;;;12.90;99.90;;;;;;5060427;28;21211;-66
2022/07/02 01:13:11;;;;;;;6.13;5.53;;;12.90;99.90;;;;;;5053046;28;20460;-66
2022/07/02 01:15:39;;;;;;;6.77;5.97;;;12.90;99.90;;;;;;5050007;28;20440;-66
2022/07/02 01:18:06;;;;;;;6.40;5.27;;;12.90;99.90;;;;;;5049678;28;20859;-66
2022/07/02 01:20:33;;;;;;;6.23;4.90;;;12.90;99.90;;;;;;5049546;28;20459;-67
2022/07/02 01:23:01;;;;;;;6.37;5.77;;;12.90;99.90;;;;;;5049381;28;20471;-66
2022/07/02 01:25:28;;;;;;;6.20;5.70;;;12.90;99.90;;;;;;5049507;28;20447;-66
2022/07/02 01:27:54;;;;;;;6.27;5.67;;;12.80;99.90;;;;;;5049619;28;20940;-66
2022/07/02 01:30:21;;;;;;;5.50;5.00;;;12.80;99.90;;;;;;5049252;28;20978;-66
2022/07/02 01:32:53;;;;;;;6.97;6.27;;;12.70;99.90;;;;;;5049415;28;20490;-66
2022/07/02 01:35:20;;;;;;;6.40;5.70;;;12.70;99.90;;;;;;5049429;28;20444;-66
2022/07/02 01:37:49;;;;;;;7.70;6.30;;;12.70;99.90;;;;;;5049400;28;20453;-66
2022/07/02 01:40:17;;;;;;;10.37;5.50;;;12.70;99.90;;;;;;5049111;28;20436;-66
2022/07/02 01:42:44;;;;;;;6.63;6.00;;;12.70;99.90;;;;;;5049522;28;20459;-66
2022/07/02 01:45:11;;;;;;;7.77;6.97;;;12.70;99.90;;;;;;5049348;28;20444;-66
2022/07/02 01:47:37;;;;;;;7.13;5.37;;;12.70;99.90;;;;;;5049496;28;20451;-66
2022/07/02 01:50:05;;;;;;;7.20;6.50;;;12.70;99.90;;;;;;5048906;28;20806;-66
2022/07/02 01:52:32;;;;;;;9.90;6.67;;;12.70;99.90;;;;;;5049242;28;20491;-67
2022/07/02 01:54:59;;;;;;;7.50;6.30;;;12.70;99.90;;;;;;5049347;28;20436;-66
2022/07/02 01:57:33;;;;;;;8.80;6.00;;;12.70;99.90;;;;;;5049474;28;20530;-66
2022/07/02 02:00:00;;;;;;;7.73;6.20;;;12.80;99.90;;;;;;5048958;28;20533;-66
2022/07/02 02:02:27;;;;;;;6.60;6.00;;;12.70;99.90;;;;;;5049112;28;20460;-67
2022/07/02 02:04:54;;;;;;;9.23;6.10;;;12.70;99.90;;;;;;5048868;28;20946;-66
2022/07/02 02:07:20;;;;;;;8.40;6.50;;;12.70;99.90;;;;;;5049142;28;20450;-66
2022/07/02 02:09:47;;;;;;;5.40;4.30;;;12.70;99.90;;;;;;5048815;28;20939;-66
2022/07/02 02:12:14;;;;;;;6.33;5.70;;;12.60;99.90;;;;;;5048995;28;20476;-66
2022/07/02 02:14:42;;;;;;;5.90;5.37;;;12.60;99.90;;;;;;5049145;28;20449;-66
2022/07/02 02:17:09;;;;;;;5.37;4.87;;;12.70;99.90;;;;;;5053050;28;20444;-66
2022/07/02 02:19:36;;;;;;;6.77;4.83;;;12.60;99.90;;;;;;5052807;28;20480;-65
2022/07/02 02:22:03;;;;;;;5.63;5.03;;;12.60;99.90;;;;;;5052789;28;20474;-66
2022/07/02 02:24:30;;;;;;;6.90;5.70;;;12.50;99.90;;;;;;5052954;28;21139;-66
2022/07/02 02:26:56;;;;;;;7.80;6.20;;;12.40;99.90;;;;;;5052932;28;20448;-67
2022/07/02 02:29:23;;;;;;;7.53;6.67;;;12.40;99.90;;;;;;5053009;28;20440;-65
2022/07/02 02:31:52;;;;;;;6.87;6.17;;;12.40;99.90;;;;;;5052324;28;20467;-66
2022/07/02 02:34:19;;;;;;;9.17;5.73;;;12.40;99.90;;;;;;5052230;28;20455;-66
2022/07/02 02:36:45;;;;;;;8.67;5.80;;;12.40;99.90;;;;;;5052916;28;20526;-66
2022/07/02 02:39:12;;;;;;;5.97;5.17;;;12.40;99.90;;;;;;5052615;28;21034;-67
2022/07/02 02:41:39;;;;;;;7.67;5.60;;;12.50;99.90;;;;;;5052384;28;20476;-66
2022/07/02 02:44:06;;;;;;;8.13;5.30;;;12.50;99.90;;;;;;5052793;28;20444;-66
2022/07/02 02:46:33;;;;;;;6.70;5.27;;;12.50;99.90;;;;;;5052927;28;20466;-66
2022/07/02 02:49:01;;;;;;;8.73;5.53;;;12.50;99.90;;;;;;5052568;28;20493;-66
2022/07/02 02:51:28;;;;;;;6.30;5.10;;;12.40;99.90;;;;;;5052418;28;20491;-66
2022/07/02 02:53:54;;;;;;;5.37;4.83;;;12.30;99.90;;;;;;5052503;28;20503;-66
2022/07/02 02:56:21;;;;;;;6.50;5.37;;;12.30;99.90;;;;;;5052669;28;20447;-67
2022/07/02 02:58:48;;;;;;;8.27;4.57;;;12.30;99.90;;;;;;5052665;28;20476;-65
2022/07/02 03:01:15;;;;;;;7.80;5.37;;;12.20;99.90;;;;;;5052505;28;20446;-66
2022/07/02 03:03:41;;;;;;;11.23;6.33;;;12.20;99.90;;;;;;5052218;28;21013;-66
2022/07/02 03:06:10;;;;;;;7.77;4.97;;;12.20;99.90;;;;;;5052380;28;20456;-66
2022/07/02 03:08:36;;;;;;;7.73;5.60;;;12.10;99.90;;;;;;5052242;28;20444;-67
2022/07/02 03:11:03;;;;;;;10.03;6.10;;;12.00;99.90;;;;;;5051957;28;20456;-66
2022/07/02 03:13:30;;;;;;;7.30;4.80;;;12.00;99.90;;;;;;5052363;28;20464;-66
2022/07/02 03:15:57;;;;;;;10.43;5.67;;;12.00;99.90;;;;;;5052121;28;20452;-66
2022/07/02 03:18:23;;;;;;;7.33;5.63;;;12.00;99.90;;;;;;5051982;28;20444;-66
2022/07/02 03:20:50;;;;;;;7.97;5.40;;;12.00;99.90;;;;;;5051550;28;20450;-66
2022/07/02 03:23:18;;;;;;;8.97;5.47;;;12.00;99.90;;;;;;5051676;28;20466;-67
2022/07/02 03:25:45;;;;;;;5.63;5.03;;;12.00;99.90;;;;;;5051449;28;20444;-66
2022/07/02 03:28:12;;;;;;;5.30;4.80;;;12.00;99.90;;;;;;5051938;28;20452;-66
2022/07/02 03:30:38;;;;;;;6.20;5.07;;;12.00;99.90;;;;;;5051407;28;20448;-66
2022/07/02 03:33:05;;;;;;;5.20;4.47;;;12.00;99.90;;;;;;5051240;28;20574;-66
2022/07/02 03:35:32;;;;;;;6.43;4.87;;;12.00;99.90;;;;;;5050558;28;20448;-66
2022/07/02 03:38:01;;;;;;;6.30;5.10;;;12.00;99.90;;;;;;5050434;28;20444;-66
2022/07/02 03:40:31;;;;;;;5.87;5.27;;;12.00;99.90;;;;;;5050372;28;20582;-67
2022/07/02 03:42:58;;;;;;;11.43;6.20;;;12.00;99.90;;;;;;5050257;28;20472;-66
2022/07/02 03:45:24;;;;;;;7.90;4.83;;;12.00;99.90;;;;;;5050397;28;20530;-67
2022/07/02 03:47:51;;;;;;;6.10;5.10;;;12.00;99.90;;;;;;5050280;28;20452;-66
2022/07/02 03:50:18;;;;;;;5.10;4.60;;;12.00;99.90;;;;;;5049991;28;20979;-66
2022/07/02 03:52:45;;;;;;;7.70;5.47;;;12.00;99.90;;;;;;5049929;28;20468;-66
2022/07/02 03:55:11;;;;;;;8.00;5.70;;;12.10;99.90;;;;;;5050493;28;20448;-67
2022/07/02 03:57:40;;;;;;;8.20;5.30;;;12.10;99.90;;;;;;5050237;28;20814;-66
2022/07/02 04:00:08;;;;;;;7.20;5.17;;;12.10;99.90;;;;;;5049769;28;20480;-66
2022/07/02 04:02:35;;;;;;;5.60;4.80;;;12.20;99.90;;;;;;5049734;28;20474;-66
2022/07/02 04:05:02;;;;;;;5.20;4.13;;;12.20;99.90;;;;;;5050085;28;20539;-66
2022/07/02 04:07:29;;;;;;;11.00;5.20;;;12.20;99.90;;;;;;5050049;28;20443;-67
2022/07/02 04:09:55;;;;;;;9.30;5.83;;;12.20;99.90;;;;;;5049788;28;21008;-67
2022/07/02 04:12:22;;;;;;;6.50;4.90;;;12.20;99.90;;;;;;5049844;28;20479;-66
2022/07/02 04:14:50;;;;;;;5.60;5.00;;;12.20;99.90;;;;;;5049870;28;20802;-66
2022/07/02 04:17:17;;;;;;;6.93;5.60;;;12.20;99.90;;;;;;5049733;28;20935;-66
2022/07/02 04:19:44;;;;;;;5.83;4.80;;;12.20;99.90;;;;;;5049418;28;20488;-64
2022/07/02 04:22:10;;;;;;;12.17;5.60;;;12.30;99.90;;;;;;5049753;28;20468;-66
2022/07/02 04:24:37;;;;;;;6.77;5.33;;;12.30;99.90;;;;;;5049771;28;20458;-65
2022/07/02 04:27:04;;;;;;;7.83;4.97;;;12.40;99.90;;;;;;5049958;28;20451;-67
2022/07/02 04:29:31;;;;;;;7.47;5.13;;;12.60;99.90;;;;;;5049590;28;20938;-66
2022/07/02 04:31:59;;;;;;;5.10;4.60;;;12.60;99.90;;;;;;5049374;28;20558;-66
2022/07/02 04:34:26;;;;;;;6.80;5.20;;;12.70;99.90;;;;;;5012559;28;1080638;-65
2022/07/02 04:36:53;;;;;;;11.13;4.97;;;12.70;99.90;;;;;;5050440;28;20462;-66
2022/07/02 04:39:20;;;;;;;9.47;5.33;;;12.80;99.90;;;;;;5049898;28;20476;-66
2022/07/02 04:41:46;;;;;;;6.53;4.60;;;12.80;99.90;;;;;;5050193;28;20474;-67
2022/07/02 04:44:13;;;;;;;6.57;4.70;;;12.80;99.90;;;;;;5050391;28;20440;-67
2022/07/02 04:46:40;;;;;;;6.20;3.73;;;12.90;99.90;;;;;;5050044;28;20464;-66
2022/07/02 04:49:08;;;;;;;6.70;5.47;;;13.00;99.90;;;;;;5050234;28;20448;-66
2022/07/02 04:51:35;;;;;;;5.80;5.20;;;13.10;99.90;;;;;;5054966;28;20458;-67
2022/07/02 04:54:02;;;;;;;5.90;4.93;;;13.10;99.90;;;;;;5074562;28;20447;-67
2022/07/02 04:56:28;;;;;;;7.23;5.40;;;13.10;99.90;;;;;;5085706;28;20442;-67
2022/07/02 04:58:56;;;;;;;6.17;5.10;;;13.10;99.90;;;;;;5058342;28;21168;-67
2022/07/02 05:01:24;;;;;;;7.37;5.33;;;13.20;99.90;;;;;;5060263;28;20456;-64
2022/07/02 05:03:51;;;;;;;8.27;5.07;;;13.20;99.90;;;;;;5071054;28;20496;-66
2022/07/02 05:06:19;;;;;;;6.40;5.07;;;13.30;99.90;;;;;;5080597;28;20451;-66
2022/07/02 05:08:46;;;;;;;6.07;5.27;;;13.40;99.90;;;;;;5074629;28;20825;-66
2022/07/02 05:11:13;;;;;;;7.23;5.07;;;13.50;99.90;;;;;;5069731;28;20873;-67
2022/07/02 05:13:40;;;;;;;7.10;5.13;;;13.60;99.90;;;;;;5069620;28;20471;-66
2022/07/02 05:16:07;;;;;;;7.90;5.10;;;13.70;99.90;;;;;;5070007;28;20447;-65
2022/07/02 05:18:34;;;;;;;9.17;6.47;;;13.70;99.90;;;;;;5069899;28;20449;-66
2022/07/02 05:21:00;;;;;;;7.10;4.97;;;13.80;99.90;;;;;;5069506;28;20483;-66
2022/07/02 05:23:29;;;;;;;7.30;6.30;;;13.80;99.90;;;;;;5069721;28;20483;-66
2022/07/02 05:25:55;;;;;;;9.23;5.13;;;13.90;99.90;;;;;;5069881;28;20518;-67
2022/07/02 05:28:23;;;;;;;7.20;5.50;;;14.00;99.90;;;;;;5069550;28;20458;-67
2022/07/02 05:30:51;;;;;;;5.87;5.37;;;14.10;99.90;;;;;;5069687;28;20871;-66
2022/07/02 05:33:17;;;;;;;7.20;5.60;;;14.10;99.90;;;;;;5069390;28;20479;-66
2022/07/02 05:35:44;;;;;;;5.43;4.90;;;14.20;99.90;;;;;;5069936;28;20472;-67
2022/07/02 05:38:11;;;;;;;13.47;5.33;;;14.20;99.90;;;;;;5069719;28;20837;-66
2022/07/02 05:40:39;;;;;;;5.93;5.30;;;14.30;99.90;;;;;;5069454;28;20482;-66
2022/07/02 05:43:06;;;;;;;7.17;5.00;;;14.40;99.90;;;;;;5069889;28;20469;-67
2022/07/02 05:45:33;;;;;;;5.17;4.60;;;14.50;99.90;;;;;;5069648;28;20459;-66
2022/07/02 05:48:00;;;;;;;5.30;4.80;;;14.60;99.90;;;;;;5069697;28;20446;-66
2022/07/02 05:50:27;;;;;;;5.53;4.50;;;14.70;99.90;;;;;;5068129;28;20443;-66
2022/07/02 05:52:53;;;;;;;5.47;4.57;;;14.70;99.90;;;;;;5069474;28;20466;-67
2022/07/02 05:55:20;;;;;;;7.37;5.57;;;14.80;99.90;;;;;;5069223;28;20442;-67
2022/07/02 05:57:49;;;;;;;4.53;4.03;;;14.90;99.90;;;;;;5069455;28;20454;-66
2022/07/02 06:00:16;;;;;;;5.07;3.83;;;14.90;99.90;;;;;;5068949;28;20487;-66
2022/07/02 06:02:43;;;;;;;3.63;3.30;;;15.00;99.90;;;;;;5069265;28;20980;-65
2022/07/02 06:07:54;;;;;;;4.63;4.00;;;15.20;99.90;;;;;;5069276;28;20415;-66
2022/07/02 06:10:21;;;;;;;5.93;3.17;;;15.30;99.90;;;;;;5068780;28;20447;-66
2022/07/02 06:12:50;;;;;;;3.77;2.67;;;15.30;99.90;;;;;;5069343;28;20482;-66
2022/07/02 06:15:18;;;;;;;4.63;3.17;;;15.40;99.90;;;;;;5069169;28;20442;-67
2022/07/02 06:17:45;;;;;;;4.07;3.30;;;15.50;99.90;;;;;;5069192;28;20447;-67
2022/07/02 06:20:13;;;;;;;3.60;2.93;;;15.60;99.90;;;;;;5068797;28;20483;-66
2022/07/02 06:22:40;;;;;;;4.70;2.87;;;15.70;99.90;;;;;;5068802;28;20478;-66
2022/07/02 06:25:08;;;;;;;4.60;3.30;;;15.80;99.90;;;;;;5069208;28;20457;-66
2022/07/02 06:27:36;;;;;;;3.10;2.43;;;15.80;99.90;;;;;;5068069;28;20450;-66
2022/07/02 06:30:06;;;;;;;4.00;3.13;;;15.90;99.90;;;;;;5066507;28;20458;-67
2022/07/02 06:32:33;;;;;;;3.87;2.43;;;16.10;99.90;;;;;;5077242;28;20912;-67
2022/07/02 06:35:00;;;;;;;5.50;1.97;;;16.20;99.90;;;;;;5073747;28;20451;-66
2022/07/02 06:37:27;;;;;;;3.40;2.27;;;16.20;99.90;;;;;;5077085;28;20916;-67
2022/07/02 06:39:54;;;;;;;3.90;1.97;;;16.30;99.90;;;;;;5074501;28;20554;-66
2022/07/02 06:42:22;;;;;;;2.90;2.17;;;16.40;99.90;;;;;;5073887;28;20562;-66
2022/07/02 06:44:51;;;;;;;2.93;1.90;;;16.60;99.90;;;;;;5075063;28;20447;-68
2022/07/02 06:47:19;;;;;;;2.80;1.93;;;16.70;99.90;;;;;;5075417;28;20447;-67
2022/07/02 06:49:47;;;;;;;2.83;1.73;;;16.70;99.90;;;;;;5082344;28;20441;-67
2022/07/02 06:52:14;;;;;;;2.80;1.87;;;16.80;99.90;;;;;;5069652;28;20459;-67
2022/07/02 06:54:42;;;;;;;2.73;1.80;;;16.90;99.90;;;;;;5068814;28;20981;-67
2022/07/02 06:57:09;;;;;;;3.77;1.67;;;17.00;99.90;;;;;;5068842;28;20826;-67
2022/07/02 06:59:36;;;;;;;3.33;1.87;;;17.20;99.90;;;;;;5068542;28;20537;-67
2022/07/02 07:02:03;;;;;;;2.50;1.53;;;17.30;99.90;;;;;;5077322;28;20475;-67
2022/07/02 07:04:32;;;;;;;2.20;1.20;;;17.40;99.90;;;;;;5073801;28;20453;-67
2022/07/02 07:07:03;;;;;;;2.67;1.40;;;17.50;99.90;;;;;;5072492;28;20453;-67
2022/07/02 07:09:30;;;;;;;4.03;1.67;;;17.60;99.90;;;;;;5072098;28;20439;-67
2022/07/02 07:11:57;;;;;;;2.50;1.70;;;17.70;99.90;;;;;;5077024;28;20825;-66
2022/07/02 07:14:24;;;;;;;3.57;1.70;;;17.80;99.90;;;;;;5082441;28;21179;-67
2022/07/02 07:16:51;;;;;;;2.83;1.50;;;17.90;99.90;;;;;;5070119;28;21089;-68
2022/07/02 07:19:18;;;;;;;8.00;1.57;;;18.10;99.90;;;;;;5080623;28;20830;-67
2022/07/02 07:21:46;;;;;;;2.50;1.67;;;18.20;99.90;;;;;;5074348;28;20487;-68
2022/07/02 07:24:13;;;;;;;2.30;1.40;;;18.30;99.90;;;;;;5071663;28;20521;-67
2022/07/02 07:26:40;;;;;;;2.97;1.50;;;18.40;99.90;;;;;;5069359;28;21177;-67
2022/07/02 07:29:07;;;;;;;3.03;1.50;;;18.60;99.90;;;;;;5068613;28;20529;-66
2022/07/02 07:31:35;;;;;;;2.13;1.53;;;18.60;99.90;;;;;;5073445;28;20469;-65
2022/07/02 07:34:02;;;;;;;2.83;1.43;;;18.70;99.90;;;;;;5061597;28;20958;-65
2022/07/02 07:36:29;;;;;;;2.10;1.40;;;18.90;99.90;;;;;;5075299;28;20452;-66
2022/07/02 07:38:59;;;;;;;2.90;1.20;;;19.00;99.90;;;;;;5082155;28;20447;-66
2022/07/02 07:41:26;;;;;;;2.00;1.27;;;19.10;99.90;;;;;;5081510;28;20502;-65
2022/07/02 07:43:53;;;;;;;2.27;1.30;;;19.30;99.90;;;;;;5077136;28;20960;-64
2022/07/02 07:46:20;;;;;;;2.10;1.03;;;19.40;99.90;;;;;;5085826;28;20526;-67
2022/07/02 07:48:47;;;;;;;1.77;1.03;;;19.50;99.90;;;;;;5091771;28;20446;-68
2022/07/02 07:51:14;;;;;;;2.10;1.10;;;19.60;99.90;;;;;;5091502;28;20813;-66
2022/07/02 07:53:43;;;;;;;2.13;1.03;;;19.70;99.90;;;;;;5090674;28;20971;-70
2022/07/02 07:56:12;;;;;;;2.87;1.00;;;19.80;99.90;;;;;;5091525;28;20863;-64
2022/07/02 07:58:39;;;;;;;2.00;1.00;;;19.90;99.90;;;;;;5065648;28;20478;-67
2022/07/02 08:01:06;;;;;;;2.53;1.00;;;20.00;99.90;;;;;;5071225;28;20838;-64
2022/07/02 08:03:33;;;;;;;2.20;1.00;;;20.20;99.90;;;;;;5073976;28;20497;-64
2022/07/02 08:05:59;;;;;;;2.13;1.10;;;20.30;99.90;;;;;;5077000;28;20832;-66
2022/07/02 08:08:26;;;;;;;2.73;1.20;;;20.40;99.90;;;;;;5081652;28;20456;-68
2022/07/02 08:10:53;;;;;;;1.80;0.80;;;20.50;99.90;;;;;;5079526;28;20510;-66
2022/07/02 08:13:21;;;;;;;2.10;0.93;;;20.60;99.90;;;;;;5068326;28;20494;-68
2022/07/02 08:15:48;;;;;;;3.00;1.20;;;20.70;99.90;;;;;;5066192;28;20447;-67
2022/07/02 08:18:15;;;;;;;3.80;0.97;;;20.80;99.90;;;;;;5077510;28;20449;-68
2022/07/02 08:20:42;;;;;;;7.17;1.30;;;20.90;99.90;;;;;;5084753;28;20474;-68
2022/07/02 08:23:08;;;;;;;2.50;1.10;;;21.00;99.90;;;;;;5072417;28;20471;-65
2022/07/02 08:25:35;;;;;;;2.47;1.10;;;21.00;99.90;;;;;;5079986;28;20454;-68
2022/07/02 08:28:03;;;;;;;2.10;1.00;;;21.00;99.90;;;;;;5083759;28;20452;-67
2022/07/02 08:30:32;;;;;;;2.30;1.20;;;21.10;99.90;;;;;;5076236;28;20438;-67
2022/07/02 08:32:58;;;;;;;2.47;0.93;;;21.20;99.90;;;;;;5077138;28;20478;-67
2022/07/02 08:35:25;;;;;;;1.87;1.07;;;21.30;99.90;;;;;;5075935;28;20446;-67
2022/07/02 08:37:53;;;;;;;2.30;1.20;;;21.40;99.90;;;;;;5070675;28;20435;-68
2022/07/02 08:40:23;;;;;;;3.63;1.20;;;21.60;99.90;;;;;;5069738;28;20445;-67
2022/07/02 08:42:52;;;;;;;3.90;1.93;;;21.60;99.90;;;;;;5060751;28;20844;-68
2022/07/02 08:45:21;;;;;;;1.80;1.00;;;21.70;99.90;;;;;;5062762;28;21017;-67
2022/07/02 08:47:52;;;;;;;2.20;0.90;;;21.70;99.90;;;;;;5062224;28;20439;-68
2022/07/02 08:50:20;;;;;;;2.10;1.10;;;21.80;99.90;;;;;;5072006;28;20462;-67
2022/07/02 08:52:50;;;;;;;2.37;0.90;;;21.90;99.90;;;;;;5072072;28;20886;-67
2022/07/02 08:55:18;;;;;;;2.27;1.00;;;21.90;99.90;;;;;;5076531;28;20450;-68
2022/07/02 08:57:48;;;;;;;2.30;1.10;;;22.00;99.90;;;;;;5073297;28;20818;-68
2022/07/02 09:00:16;;;;;;;2.80;1.10;;;22.20;99.90;;;;;;5070081;28;20455;-68
2022/07/02 09:02:43;;;;;;;4.10;1.23;;;22.20;99.90;;;;;;5071222;28;20462;-67
2022/07/02 09:05:12;;;;;;;2.50;0.90;;;22.30;99.90;;;;;;5089313;28;20449;-67
2022/07/02 09:07:40;;;;;;;2.43;0.83;;;22.50;99.90;;;;;;5078516;28;20443;-67
2022/07/02 09:10:10;;;;;;;1.93;1.30;;;22.60;99.90;;;;;;5073315;28;20447;-67
2022/07/02 09:12:37;;;;;;;2.27;1.00;;;22.60;99.90;;;;;;5071145;28;20455;-68
2022/07/02 09:15:05;;;;;;;1.77;0.87;;;22.70;99.90;;;;;;5070737;28;20447;-67
2022/07/02 09:17:32;;;;;;;2.53;1.30;;;22.70;99.90;;;;;;5061888;28;20442;-67
2022/07/02 09:19:59;;;;;;;3.00;1.00;;;22.80;99.90;;;;;;5050428;28;20452;-68
2022/07/02 09:22:34;;;;;;;2.60;1.00;;;22.90;99.90;;;;;;5050120;28;21023;-68
2022/07/02 09:25:13;;;;;;;2.27;1.00;;;23.00;99.90;;;;;;5050277;28;20817;-68
2022/07/02 09:27:40;;;;;;;3.27;1.37;;;23.10;99.90;;;;;;5049101;28;20534;-68
2022/07/02 09:30:09;;;;;;;3.60;1.00;;;23.20;99.90;;;;;;5048193;28;20454;-68
2022/07/02 09:32:41;;;;;;;6.37;1.20;;;23.30;99.90;;;;;;5048537;28;20456;-67
2022/07/02 09:35:16;;;;;;;4.33;1.20;;;23.40;99.90;;;;;;5049980;28;20456;-68
2022/07/02 09:37:44;;;;;;;2.53;0.93;;;23.40;99.90;;;;;;5049933;28;20816;-68
2022/07/02 09:40:12;;;;;;;2.13;1.00;;;23.50;99.90;;;;;;5049307;28;20459;-67
2022/07/02 09:42:39;;;;;;;3.93;1.33;;;23.60;99.90;;;;;;5050201;28;20488;-67
2022/07/02 09:45:10;;;;;;;2.10;1.00;;;23.70;99.90;;;;;;5050264;28;20453;-67
2022/07/02 09:47:38;;;;;;;2.43;1.27;;;23.80;99.90;;;;;;5049793;28;20542;-66
2022/07/02 09:50:06;;;;;;;2.57;0.80;;;23.90;99.90;;;;;;5049537;28;21044;-67
2022/07/02 09:52:34;;;;;;;1.93;0.90;;;24.10;99.90;;;;;;5050070;28;20478;-66
2022/07/02 09:55:02;;;;;;;2.70;0.97;;;24.10;99.90;;;;;;5061310;28;21395;-67
2022/07/02 09:57:29;;;;;;;2.10;1.10;;;24.20;99.90;;;;;;5060562;28;20470;-66
2022/07/02 10:00:05;;;;;;;1.80;0.83;;;24.40;99.90;;;;;;5055205;28;20447;-67
2022/07/02 10:02:32;;;;;;;1.87;0.83;;;24.50;98.90;;;;;;5060227;28;20496;-66
2022/07/02 10:05:04;;;;;;;2.53;1.07;;;25.10;98.30;;;;;;5066902;28;20481;-64
2022/07/02 10:07:32;;;;;;;5.13;1.17;;;26.00;98.50;;;;;;5073379;28;20483;-65
2022/07/02 10:10:04;;;;;;;3.73;1.40;;;27.10;96.00;;;;;;5077068;28;20923;-65
2022/07/02 10:12:31;;;;;;;2.80;0.80;;;28.10;94.20;;;;;;5071456;28;20455;-65
2022/07/02 10:14:59;;;;;;;2.33;0.80;;;28.90;92.40;;;;;;5064567;28;20829;-65
2022/07/02 10:17:28;;;;;;;2.67;0.77;;;29.60;90.00;;;;;;5076795;28;20443;-65
2022/07/02 10:19:57;;;;;;;1.80;0.87;;;30.10;85.70;;;;;;5077215;28;20870;-66
2022/07/02 10:22:24;;;;;;;2.07;0.80;;;30.50;86.10;;;;;;5067810;28;20875;-65
2022/07/02 10:24:52;;;;;;;1.90;0.70;;;30.70;86.80;;;;;;5066535;28;20449;-65
2022/07/02 10:27:21;;;;;;;2.00;1.00;;;31.10;81.60;;;;;;5071332;28;20943;-65
2022/07/02 10:29:50;;;;;;;8.03;1.00;;;31.30;83.80;;;;;;5075329;28;20438;-66
2022/07/02 10:32:26;;;;;;;2.20;0.90;;;31.30;78.70;;;;;;5079903;28;20476;-67
2022/07/02 10:35:02;;;;;;;2.00;0.80;;;31.90;77.70;;;;;;5054192;28;21003;-66
2022/07/02 10:37:31;;;;;;;2.40;1.10;;;31.40;75.00;;;;;;5065504;28;20439;-66
2022/07/02 10:40:02;;;;;;;2.20;1.03;;;31.40;74.20;;;;;;5070333;28;20542;-66
2022/07/02 10:42:39;;;;;;;2.33;1.00;;;31.60;74.70;;;;;;5071845;28;20516;-67
2022/07/02 10:45:11;;;;;;;3.17;0.97;;;31.60;75.20;;;;;;5071154;28;21051;-65
2022/07/02 10:47:37;;;;;;;7.73;0.97;;;31.70;75.30;;;;;;5071685;28;20490;-67
2022/07/02 10:50:05;;;;;;;1.83;0.80;;;31.60;73.10;;;;;;5071067;28;20937;-68
2022/07/02 10:52:52;;;;;;;1.90;0.90;;;31.60;71.20;;;;;;5071483;28;20920;-66
2022/07/02 10:55:30;;;;;;;3.13;1.00;;;31.90;72.20;;;;;;5071316;28;20445;-67
2022/07/02 10:58:03;;;;;;;2.57;0.90;;;32.30;70.80;;;;;;5070925;28;20443;-68
2022/07/02 11:00:32;;;;;;;2.33;0.80;;;32.30;68.10;;;;;;5070489;28;20443;-67
2022/07/02 11:03:11;;;;;;;1.70;0.60;;;32.50;64.10;;;;;;5072205;28;20502;-69
2022/07/02 11:05:56;;;;;;;2.53;0.73;;;32.60;68.00;;;;;;5087661;28;20438;-66
2022/07/02 11:08:46;;;;;;;1.90;0.90;;;32.30;67.50;;;;;;5074582;28;20533;-66
2022/07/02 11:11:15;;;;;;;2.43;0.70;;;32.30;71.20;;;;;;5084997;28;20540;-66
2022/07/02 11:13:47;;;;;;;2.37;0.70;;;32.30;65.70;;;;;;5086089;28;21025;-66
2022/07/02 11:16:25;;;;;;;3.63;1.23;;;32.60;66.40;;;;;;5091592;28;20446;-67
2022/07/02 11:18:53;;;;;;;3.93;0.90;;;32.60;64.40;;;;;;5088063;28;20534;-67
2022/07/02 11:21:22;;;;;;;2.70;0.70;;;32.80;65.90;;;;;;5067903;28;20439;-66
2022/07/02 11:23:49;;;;;;;1.77;0.70;;;32.50;62.10;;;;;;5071689;28;20938;-67
2022/07/02 11:26:18;;;;;;;1.70;0.60;;;32.30;63.10;;;;;;5067294;28;20455;-67
2022/07/02 11:28:47;;;;;;;4.73;0.80;;;32.70;62.90;;;;;;5066419;28;20435;-69
2022/07/02 11:31:14;;;;;;;2.00;0.73;;;32.80;61.70;;;;;;5076143;28;20443;-72
2022/07/02 11:33:49;;;;;;;1.83;0.87;;;32.80;63.20;;;;;;5081065;28;20477;-67
2022/07/02 11:36:16;;;;;;;3.27;1.07;;;32.90;59.90;;;;;;5082094;28;20517;-67
2022/07/02 11:38:45;;;;;;;3.00;0.97;;;33.00;63.80;;;;;;5080762;28;20537;-67
2022/07/02 11:41:24;;;;;;;2.83;0.80;;;33.30;59.50;;;;;;5079722;28;20486;-67
2022/07/02 11:43:54;;;;;;;1.90;0.70;;;33.20;60.50;;;;;;5061105;28;20531;-67
2022/07/02 11:46:23;;;;;;;1.70;0.70;;;33.40;62.00;;;;;;5060185;28;20984;-66
2022/07/02 11:48:51;;;;;;;2.40;1.13;;;33.60;61.30;;;;;;5055361;28;20446;-67
2022/07/02 11:51:20;;;;;;;2.80;0.60;;;33.50;60.40;;;;;;5063339;28;20450;-67
2022/07/02 11:53:56;;;;;;;3.87;0.80;;;33.50;58.80;;;;;;5064608;28;20471;-65
2022/07/02 11:56:22;;;;;;;2.20;0.73;;;33.60;62.20;;;;;;5061269;28;20447;-65
2022/07/02 11:58:49;;;;;;;2.30;1.30;;;33.60;60.70;;;;;;5060037;28;20937;-65
2022/07/02 12:01:26;;;;;;;1.80;0.90;;;33.40;60.50;;;;;;5063080;28;20457;-66
2022/07/02 12:03:55;;;;;;;3.63;0.90;;;33.00;60.00;;;;;;5057419;28;20835;-66
2022/07/02 12:06:22;;;;;;;2.53;0.90;;;33.30;60.00;;;;;;5062162;28;20659;-66
2022/07/02 12:08:53;;;;;;;2.10;0.97;;;33.40;61.80;;;;;;5060396;28;20455;-67
2022/07/02 12:11:21;;;;;;;1.90;1.00;;;33.70;60.90;;;;;;5060271;28;20457;-64
2022/07/02 12:13:48;;;;;;;2.37;1.00;;;34.10;58.80;;;;;;5070061;28;20924;-65
2022/07/02 12:16:17;;;;;;;3.00;0.90;;;34.10;55.30;;;;;;5088212;28;20537;-67
2022/07/02 12:18:57;;;;;;;4.80;1.13;;;34.30;59.30;;;;;;5069386;28;20447;-65
2022/07/02 12:21:32;;;;;;;1.60;0.63;;;34.20;57.10;;;;;;5067368;28;20439;-64
2022/07/02 12:23:59;;;;;;;2.37;1.00;;;34.00;61.10;;;;;;5081339;28;20584;-63
2022/07/02 12:26:27;;;;;;;1.90;0.80;;;34.40;59.10;;;;;;5078592;28;20814;-64
2022/07/02 12:31:44;;;;;;;2.13;1.00;;;35.00;58.00;;;;;;5089741;28;20468;-64
2022/07/02 12:34:13;;;;;;;2.10;0.90;;;34.70;60.70;;;;;;5090887;28;20545;-64
2022/07/02 12:36:53;;;;;;;2.40;0.80;;;35.00;55.10;;;;;;5080690;28;20996;-64
2022/07/02 12:39:21;;;;;;;3.03;0.90;;;34.70;55.00;;;;;;5073894;28;20451;-64
2022/07/02 12:41:48;;;;;;;2.97;1.00;;;34.40;55.40;;;;;;5068364;28;20836;-67
2022/07/02 12:44:21;;;;;;;3.57;1.00;;;34.40;55.90;;;;;;5074813;28;20830;-66
2022/07/02 12:46:51;;;;;;;1.90;0.90;;;34.70;55.70;;;;;;5065367;28;20443;-67
2022/07/02 12:49:21;;;;;;;1.90;0.83;;;35.00;58.60;;;;;;5070481;28;20451;-67
2022/07/02 12:52:02;;;;;;;2.00;0.90;;;35.40;54.80;;;;;;5070113;28;20491;-67
2022/07/02 12:54:36;;;;;;;1.90;0.80;;;35.30;57.70;;;;;;5066012;28;20862;-66
2022/07/02 12:57:17;;;;;;;1.80;0.60;;;35.30;56.10;;;;;;5067114;28;20462;-67
2022/07/02 12:59:44;;;;;;;2.27;0.80;;;35.20;56.80;;;;;;5068065;28;20435;-65